sensor_id;sensor_type;location;lat;lon;timestamp;temperature;humidity
16655;DHT22;8441;51.344;7.022;2023-05-20T00:02:14;10.90;99.90
16655;DHT22;8441;51.344;7.022;2023-05-20T00:04:41;10.90;99.90
16655;DHT22;8441;51.344;7.022;2023-05-20T00:07:08;10.90;99.90
16655;DHT22;8441;51.344;7.022;2023-05-20T00:09:38;10.90;99.90
16655;DHT22;8441;51.344;7.022;2023-05-20T00:12:06;10.90;99.90
16655;DHT22;8441;51.344;7.022;2023-05-20T00:14:33;10.90;99.90
16655;DHT22;8441;51.344;7.022;2023-05-20T00:17:00;10.90;99.90
16655;DHT22;8441;51.344;7.022;2023-05-20T00:19:28;10.90;99.90
16655;DHT22;8441;51.344;7.022;2023-05-20T00:21:55;11.00;99.90
16655;DHT22;8441;51.344;7.022;2023-05-20T00:24:23;10.90;99.90
16655;DHT22;8441;51.344;7.022;2023-05-20T00:26:52;10.80;99.90
16655;DHT22;8441;51.344;7.022;2023-05-20T00:29:20;10.70;99.90
16655;DHT22;8441;51.344;7.022;2023-05-20T00:31:48;10.70;99.90
16655;DHT22;8441;51.344;7.022;2023-05-20T00:34:15;10.70;99.90
16655;DHT22;8441;51.344;7.022;2023-05-20T00:36:42;10.60;99.90
16655;DHT22;8441;51.344;7.022;2023-05-20T00:39:09;10.60;99.90
16655;DHT22;8441;51.344;7.022;2023-05-20T00:41:36;10.60;99.90
16655;DHT22;8441;51.344;7.022;2023-05-20T00:44:05;10.60;99.90
16655;DHT22;8441;51.344;7.022;2023-05-20T00:46:32;10.60;99.90
16655;DHT22;8441;51.344;7.022;2023-05-20T00:49:00;10.60;99.90
16655;DHT22;8441;51.344;7.022;2023-05-20T00:51:27;10.50;99.90
16655;DHT22;8441;51.344;7.022;2023-05-20T00:53:55;10.50;99.90
16655;DHT22;8441;51.344;7.022;2023-05-20T00:56:24;10.50;99.90
16655;DHT22;8441;51.344;7.022;2023-05-20T00:58:51;10.40;99.90
16655;DHT22;8441;51.344;7.022;2023-05-20T01:01:20;10.40;99.90
16655;DHT22;8441;51.344;7.022;2023-05-20T01:03:47;10.40;99.90
16655;DHT22;8441;51.344;7.022;2023-05-20T01:06:14;10.40;99.90
16655;DHT22;8441;51.344;7.022;2023-05-20T01:08:42;10.40;99.90
16655;DHT22;8441;51.344;7.022;2023-05-20T01:11:14;10.40;99.90
16655;DHT22;8441;51.344;7.022;2023-05-20T01:13:44;10.30;99.90
16655;DHT22;8441;51.344;7.022;2023-05-20T01:16:14;10.30;99.90
16655;DHT22;8441;51.344;7.022;2023-05-20T01:18:46;10.30;99.90
16655;DHT22;8441;51.344;7.022;2023-05-20T01:21:14;10.30;99.90
16655;DHT22;8441;51.344;7.022;2023-05-20T01:23:44;10.30;99.90
16655;DHT22;8441;51.344;7.022;2023-05-20T01:26:11;10.20;99.90
16655;DHT22;8441;51.344;7.022;2023-05-20T01:28:40;10.20;99.90
16655;DHT22;8441;51.344;7.022;2023-05-20T01:31:14;10.20;99.90
16655;DHT22;8441;51.344;7.022;2023-05-20T01:33:42;10.20;99.90
16655;DHT22;8441;51.344;7.022;2023-05-20T01:36:10;10.20;99.90
16655;DHT22;8441;51.344;7.022;2023-05-20T01:38:40;10.20;99.90
16655;DHT22;8441;51.344;7.022;2023-05-20T01:41:10;10.20;99.90
16655;DHT22;8441;51.344;7.022;2023-05-20T01:43:38;10.20;99.90
16655;DHT22;8441;51.344;7.022;2023-05-20T01:46:06;10.20;99.90
16655;DHT22;8441;51.344;7.022;2023-05-20T01:48:33;10.20;99.90
16655;DHT22;8441;51.344;7.022;2023-05-20T01:51:00;10.10;99.90
16655;DHT22;8441;51.344;7.022;2023-05-20T01:53:28;10.10;99.90
16655;DHT22;8441;51.344;7.022;2023-05-20T01:55:55;10.10;99.90
16655;DHT22;8441;51.344;7.022;2023-05-20T01:58:23;10.10;99.90
16655;DHT22;8441;51.344;7.022;2023-05-20T02:00:51;10.10;99.90
16655;DHT22;8441;51.344;7.022;2023-05-20T02:03:18;10.10;99.90
16655;DHT22;8441;51.344;7.022;2023-05-20T02:05:45;10.10;99.90
16655;DHT22;8441;51.344;7.022;2023-05-20T02:08:12;10.10;99.90
16655;DHT22;8441;51.344;7.022;2023-05-20T02:10:40;10.10;99.90
16655;DHT22;8441;51.344;7.022;2023-05-20T02:13:07;10.10;99.90
16655;DHT22;8441;51.344;7.022;2023-05-20T02:15:35;10.00;99.90
16655;DHT22;8441;51.344;7.022;2023-05-20T02:18:06;10.00;99.90
16655;DHT22;8441;51.344;7.022;2023-05-20T02:20:34;9.90;99.90
16655;DHT22;8441;51.344;7.022;2023-05-20T02:23:02;9.90;99.90
16655;DHT22;8441;51.344;7.022;2023-05-20T02:25:30;9.90;99.90
16655;DHT22;8441;51.344;7.022;2023-05-20T02:27:57;9.80;99.90
16655;DHT22;8441;51.344;7.022;2023-05-20T02:30:26;9.80;99.90
16655;DHT22;8441;51.344;7.022;2023-05-20T02:32:54;9.80;99.90
16655;DHT22;8441;51.344;7.022;2023-05-20T02:35:22;9.80;99.90
16655;DHT22;8441;51.344;7.022;2023-05-20T02:37:49;9.70;99.90
16655;DHT22;8441;51.344;7.022;2023-05-20T02:40:17;9.60;99.90
16655;DHT22;8441;51.344;7.022;2023-05-20T02:42:44;9.60;99.90
16655;DHT22;8441;51.344;7.022;2023-05-20T02:45:11;9.60;99.90
16655;DHT22;8441;51.344;7.022;2023-05-20T02:47:38;9.60;99.90
16655;DHT22;8441;51.344;7.022;2023-05-20T02:50:08;9.50;99.90
16655;DHT22;8441;51.344;7.022;2023-05-20T02:52:35;9.60;99.90
16655;DHT22;8441;51.344;7.022;2023-05-20T02:55:03;9.60;99.90
16655;DHT22;8441;51.344;7.022;2023-05-20T02:57:30;9.60;99.90
16655;DHT22;8441;51.344;7.022;2023-05-20T02:59:59;9.50;99.90
16655;DHT22;8441;51.344;7.022;2023-05-20T03:02:27;9.50;99.90
16655;DHT22;8441;51.344;7.022;2023-05-20T03:04:54;9.50;99.90
16655;DHT22;8441;51.344;7.022;2023-05-20T03:07:22;9.40;99.90
16655;DHT22;8441;51.344;7.022;2023-05-20T03:09:49;9.40;99.90
16655;DHT22;8441;51.344;7.022;2023-05-20T03:12:17;9.40;99.90
16655;DHT22;8441;51.344;7.022;2023-05-20T03:14:44;9.40;99.90
16655;DHT22;8441;51.344;7.022;2023-05-20T03:17:11;9.40;99.90
16655;DHT22;8441;51.344;7.022;2023-05-20T03:19:38;9.40;99.90
16655;DHT22;8441;51.344;7.022;2023-05-20T03:22:06;9.40;99.90
16655;DHT22;8441;51.344;7.022;2023-05-20T03:24:34;9.40;99.90
16655;DHT22;8441;51.344;7.022;2023-05-20T03:27:01;9.40;99.90
16655;DHT22;8441;51.344;7.022;2023-05-20T03:29:29;9.30;99.90
16655;DHT22;8441;51.344;7.022;2023-05-20T03:31:56;9.40;99.90
16655;DHT22;8441;51.344;7.022;2023-05-20T03:34:23;9.40;99.90
16655;DHT22;8441;51.344;7.022;2023-05-20T03:36:52;9.40;99.90
16655;DHT22;8441;51.344;7.022;2023-05-20T03:39:19;9.40;99.90
16655;DHT22;8441;51.344;7.022;2023-05-20T03:41:48;9.40;99.90
16655;DHT22;8441;51.344;7.022;2023-05-20T03:44:16;9.40;99.90
16655;DHT22;8441;51.344;7.022;2023-05-20T03:46:44;9.40;99.90
16655;DHT22;8441;51.344;7.022;2023-05-20T03:49:11;9.30;99.90
16655;DHT22;8441;51.344;7.022;2023-05-20T03:51:39;9.30;99.90
16655;DHT22;8441;51.344;7.022;2023-05-20T03:54:06;9.30;99.90
16655;DHT22;8441;51.344;7.022;2023-05-20T03:56:33;9.40;99.90
16655;DHT22;8441;51.344;7.022;2023-05-20T03:59:02;9.40;99.90
16655;DHT22;8441;51.344;7.022;2023-05-20T04:01:30;9.40;99.90
16655;DHT22;8441;51.344;7.022;2023-05-20T04:03:58;9.50;99.90
16655;DHT22;8441;51.344;7.022;2023-05-20T04:06:25;9.50;99.90
16655;DHT22;8441;51.344;7.022;2023-05-20T04:08:52;9.60;99.90
16655;DHT22;8441;51.344;7.022;2023-05-20T04:11:20;9.60;99.90
16655;DHT22;8441;51.344;7.022;2023-05-20T04:13:47;9.60;99.90
16655;DHT22;8441;51.344;7.022;2023-05-20T04:16:15;9.70;99.90
16655;DHT22;8441;51.344;7.022;2023-05-20T04:18:42;9.70;99.90
16655;DHT22;8441;51.344;7.022;2023-05-20T04:21:11;9.80;99.90
16655;DHT22;8441;51.344;7.022;2023-05-20T04:23:38;9.80;99.90
16655;DHT22;8441;51.344;7.022;2023-05-20T04:26:05;9.80;99.90
16655;DHT22;8441;51.344;7.022;2023-05-20T04:28:32;9.90;99.90
16655;DHT22;8441;51.344;7.022;2023-05-20T04:31:03;9.90;99.90
16655;DHT22;8441;51.344;7.022;2023-05-20T04:33:31;10.00;99.90
16655;DHT22;8441;51.344;7.022;2023-05-20T04:36:02;10.10;99.90
16655;DHT22;8441;51.344;7.022;2023-05-20T04:38:30;10.10;99.90
16655;DHT22;8441;51.344;7.022;2023-05-20T04:40:57;10.20;99.90
16655;DHT22;8441;51.344;7.022;2023-05-20T04:43:25;10.20;99.90
16655;DHT22;8441;51.344;7.022;2023-05-20T04:45:55;10.30;99.90
16655;DHT22;8441;51.344;7.022;2023-05-20T04:48:23;10.40;99.90
16655;DHT22;8441;51.344;7.022;2023-05-20T04:50:52;10.40;99.90
16655;DHT22;8441;51.344;7.022;2023-05-20T04:53:20;10.40;99.90
16655;DHT22;8441;51.344;7.022;2023-05-20T04:55:48;10.40;99.90
16655;DHT22;8441;51.344;7.022;2023-05-20T04:58:18;10.50;99.90
16655;DHT22;8441;51.344;7.022;2023-05-20T05:00:50;10.50;99.90
16655;DHT22;8441;51.344;7.022;2023-05-20T05:03:17;10.50;99.90
16655;DHT22;8441;51.344;7.022;2023-05-20T05:05:44;10.50;99.90
16655;DHT22;8441;51.344;7.022;2023-05-20T05:08:13;10.50;99.90
16655;DHT22;8441;51.344;7.022;2023-05-20T05:10:41;10.60;99.90
16655;DHT22;8441;51.344;7.022;2023-05-20T05:13:08;10.60;99.90
16655;DHT22;8441;51.344;7.022;2023-05-20T05:15:35;10.60;99.90
16655;DHT22;8441;51.344;7.022;2023-05-20T05:18:03;10.60;99.90
16655;DHT22;8441;51.344;7.022;2023-05-20T05:20:30;10.60;99.90
16655;DHT22;8441;51.344;7.022;2023-05-20T05:22:57;10.70;99.90
16655;DHT22;8441;51.344;7.022;2023-05-20T05:25:26;10.70;99.90
16655;DHT22;8441;51.344;7.022;2023-05-20T05:27:53;10.70;99.90
16655;DHT22;8441;51.344;7.022;2023-05-20T05:30:20;10.70;99.90
16655;DHT22;8441;51.344;7.022;2023-05-20T05:32:47;10.80;99.90
16655;DHT22;8441;51.344;7.022;2023-05-20T05:35:15;10.80;99.90
16655;DHT22;8441;51.344;7.022;2023-05-20T05:37:42;10.90;99.90
16655;DHT22;8441;51.344;7.022;2023-05-20T05:40:10;10.90;99.90
16655;DHT22;8441;51.344;7.022;2023-05-20T05:42:39;11.00;99.90
16655;DHT22;8441;51.344;7.022;2023-05-20T05:45:07;11.00;99.90
16655;DHT22;8441;51.344;7.022;2023-05-20T05:47:34;11.10;99.90
16655;DHT22;8441;51.344;7.022;2023-05-20T05:50:02;11.20;99.90
16655;DHT22;8441;51.344;7.022;2023-05-20T05:52:29;11.20;99.90
16655;DHT22;8441;51.344;7.022;2023-05-20T05:54:56;11.30;99.90
16655;DHT22;8441;51.344;7.022;2023-05-20T05:57:23;11.40;99.90
16655;DHT22;8441;51.344;7.022;2023-05-20T05:59:52;11.40;99.90
16655;DHT22;8441;51.344;7.022;2023-05-20T06:02:19;11.50;99.90
16655;DHT22;8441;51.344;7.022;2023-05-20T06:04:46;11.50;99.90
16655;DHT22;8441;51.344;7.022;2023-05-20T06:07:13;11.60;99.90
16655;DHT22;8441;51.344;7.022;2023-05-20T06:09:41;11.70;99.90
16655;DHT22;8441;51.344;7.022;2023-05-20T06:12:08;11.90;99.90
16655;DHT22;8441;51.344;7.022;2023-05-20T06:14:35;12.10;99.90
16655;DHT22;8441;51.344;7.022;2023-05-20T06:17:04;12.40;99.90
16655;DHT22;8441;51.344;7.022;2023-05-20T06:19:31;12.80;99.90
16655;DHT22;8441;51.344;7.022;2023-05-20T06:21:58;13.20;99.90
16655;DHT22;8441;51.344;7.022;2023-05-20T06:24:26;13.30;99.90
16655;DHT22;8441;51.344;7.022;2023-05-20T06:26:53;13.40;99.90
16655;DHT22;8441;51.344;7.022;2023-05-20T06:29:20;13.30;99.90
16655;DHT22;8441;51.344;7.022;2023-05-20T06:31:47;13.10;99.90
16655;DHT22;8441;51.344;7.022;2023-05-20T06:34:16;13.00;99.90
16655;DHT22;8441;51.344;7.022;2023-05-20T06:36:43;13.00;99.90
16655;DHT22;8441;51.344;7.022;2023-05-20T06:39:10;13.00;99.90
16655;DHT22;8441;51.344;7.022;2023-05-20T06:41:38;13.00;99.90
16655;DHT22;8441;51.344;7.022;2023-05-20T06:44:05;13.00;99.90
16655;DHT22;8441;51.344;7.022;2023-05-20T06:46:33;13.00;99.90
16655;DHT22;8441;51.344;7.022;2023-05-20T06:49:00;13.00;99.90
16655;DHT22;8441;51.344;7.022;2023-05-20T06:51:29;13.00;99.90
16655;DHT22;8441;51.344;7.022;2023-05-20T06:53:57;13.00;99.90
16655;DHT22;8441;51.344;7.022;2023-05-20T06:56:24;13.10;99.90
16655;DHT22;8441;51.344;7.022;2023-05-20T06:58:51;13.20;99.90
16655;DHT22;8441;51.344;7.022;2023-05-20T07:01:18;13.20;99.90
16655;DHT22;8441;51.344;7.022;2023-05-20T07:03:45;13.30;99.90
16655;DHT22;8441;51.344;7.022;2023-05-20T07:06:13;13.40;99.90
16655;DHT22;8441;51.344;7.022;2023-05-20T07:08:41;13.30;99.90
16655;DHT22;8441;51.344;7.022;2023-05-20T07:11:09;13.50;99.90
16655;DHT22;8441;51.344;7.022;2023-05-20T07:13:36;13.60;99.90
16655;DHT22;8441;51.344;7.022;2023-05-20T07:16:04;13.80;99.90
16655;DHT22;8441;51.344;7.022;2023-05-20T07:18:31;13.80;99.90
16655;DHT22;8441;51.344;7.022;2023-05-20T07:20:59;14.00;99.90
16655;DHT22;8441;51.344;7.022;2023-05-20T07:23:26;14.20;99.90
16655;DHT22;8441;51.344;7.022;2023-05-20T07:25:54;14.30;99.90
16655;DHT22;8441;51.344;7.022;2023-05-20T07:28:21;14.50;99.90
16655;DHT22;8441;51.344;7.022;2023-05-20T07:30:49;14.70;99.90
16655;DHT22;8441;51.344;7.022;2023-05-20T07:33:16;14.80;99.90
16655;DHT22;8441;51.344;7.022;2023-05-20T07:35:43;14.80;99.90
16655;DHT22;8441;51.344;7.022;2023-05-20T07:38:11;14.70;99.90
16655;DHT22;8441;51.344;7.022;2023-05-20T07:40:39;14.80;99.90
16655;DHT22;8441;51.344;7.022;2023-05-20T07:43:08;15.00;99.90
16655;DHT22;8441;51.344;7.022;2023-05-20T07:45:35;15.20;99.90
16655;DHT22;8441;51.344;7.022;2023-05-20T07:48:02;15.40;99.90
16655;DHT22;8441;51.344;7.022;2023-05-20T07:50:30;15.50;99.90
16655;DHT22;8441;51.344;7.022;2023-05-20T07:52:57;15.40;99.90
16655;DHT22;8441;51.344;7.022;2023-05-20T07:55:24;15.50;99.90
16655;DHT22;8441;51.344;7.022;2023-05-20T07:57:52;15.40;99.90
16655;DHT22;8441;51.344;7.022;2023-05-20T08:00:21;15.40;99.90
16655;DHT22;8441;51.344;7.022;2023-05-20T08:02:48;15.50;99.90
16655;DHT22;8441;51.344;7.022;2023-05-20T08:05:15;15.70;99.90
16655;DHT22;8441;51.344;7.022;2023-05-20T08:07:42;15.80;99.90
16655;DHT22;8441;51.344;7.022;2023-05-20T08:10:10;16.30;99.90
16655;DHT22;8441;51.344;7.022;2023-05-20T08:12:37;16.00;99.90
16655;DHT22;8441;51.344;7.022;2023-05-20T08:15:06;16.10;99.90
16655;DHT22;8441;51.344;7.022;2023-05-20T08:17:35;16.10;99.90
16655;DHT22;8441;51.344;7.022;2023-05-20T08:20:04;16.10;99.90
16655;DHT22;8441;51.344;7.022;2023-05-20T08:22:33;16.10;99.90
16655;DHT22;8441;51.344;7.022;2023-05-20T08:25:02;16.30;99.90
16655;DHT22;8441;51.344;7.022;2023-05-20T08:27:29;16.20;99.90
16655;DHT22;8441;51.344;7.022;2023-05-20T08:29:57;16.30;99.90
16655;DHT22;8441;51.344;7.022;2023-05-20T08:32:24;16.40;99.90
16655;DHT22;8441;51.344;7.022;2023-05-20T08:34:53;16.30;99.90
16655;DHT22;8441;51.344;7.022;2023-05-20T08:37:20;16.40;99.90
16655;DHT22;8441;51.344;7.022;2023-05-20T08:39:48;16.40;99.90
16655;DHT22;8441;51.344;7.022;2023-05-20T08:42:18;16.70;99.90
16655;DHT22;8441;51.344;7.022;2023-05-20T08:44:46;17.20;99.90
16655;DHT22;8441;51.344;7.022;2023-05-20T08:47:13;17.00;99.90
16655;DHT22;8441;51.344;7.022;2023-05-20T08:49:41;16.90;99.90
16655;DHT22;8441;51.344;7.022;2023-05-20T08:52:10;16.90;99.90
16655;DHT22;8441;51.344;7.022;2023-05-20T08:54:45;17.30;99.90
16655;DHT22;8441;51.344;7.022;2023-05-20T08:57:12;17.10;99.90
16655;DHT22;8441;51.344;7.022;2023-05-20T08:59:41;17.00;99.90
16655;DHT22;8441;51.344;7.022;2023-05-20T09:02:09;17.00;99.90
16655;DHT22;8441;51.344;7.022;2023-05-20T09:04:37;17.20;99.90
16655;DHT22;8441;51.344;7.022;2023-05-20T09:07:04;17.30;99.90
16655;DHT22;8441;51.344;7.022;2023-05-20T09:09:33;17.50;99.90
16655;DHT22;8441;51.344;7.022;2023-05-20T09:12:01;17.80;99.90
16655;DHT22;8441;51.344;7.022;2023-05-20T09:14:29;17.90;99.90
16655;DHT22;8441;51.344;7.022;2023-05-20T09:16:56;18.20;99.90
16655;DHT22;8441;51.344;7.022;2023-05-20T09:19:24;18.20;99.90
16655;DHT22;8441;51.344;7.022;2023-05-20T09:21:52;18.10;99.90
16655;DHT22;8441;51.344;7.022;2023-05-20T09:24:23;17.90;99.90
16655;DHT22;8441;51.344;7.022;2023-05-20T09:26:52;17.90;99.90
16655;DHT22;8441;51.344;7.022;2023-05-20T09:29:19;18.10;99.90
16655;DHT22;8441;51.344;7.022;2023-05-20T09:31:47;18.20;99.90
16655;DHT22;8441;51.344;7.022;2023-05-20T09:34:14;18.10;99.90
16655;DHT22;8441;51.344;7.022;2023-05-20T09:36:43;17.80;99.90
16655;DHT22;8441;51.344;7.022;2023-05-20T09:39:13;17.70;99.90
16655;DHT22;8441;51.344;7.022;2023-05-20T09:41:54;17.50;99.90
16655;DHT22;8441;51.344;7.022;2023-05-20T09:44:21;17.40;99.90
16655;DHT22;8441;51.344;7.022;2023-05-20T09:46:50;17.40;99.90
16655;DHT22;8441;51.344;7.022;2023-05-20T09:49:19;17.60;99.90
16655;DHT22;8441;51.344;7.022;2023-05-20T09:51:49;17.40;99.90
16655;DHT22;8441;51.344;7.022;2023-05-20T09:54:18;17.50;99.90
16655;DHT22;8441;51.344;7.022;2023-05-20T09:56:46;17.60;99.90
16655;DHT22;8441;51.344;7.022;2023-05-20T09:59:15;17.60;99.90
16655;DHT22;8441;51.344;7.022;2023-05-20T10:01:43;18.10;99.90
16655;DHT22;8441;51.344;7.022;2023-05-20T10:04:12;18.50;99.90
16655;DHT22;8441;51.344;7.022;2023-05-20T10:06:55;18.30;99.90
16655;DHT22;8441;51.344;7.022;2023-05-20T10:09:46;18.00;99.90
16655;DHT22;8441;51.344;7.022;2023-05-20T10:12:22;17.90;99.90
16655;DHT22;8441;51.344;7.022;2023-05-20T10:15:15;17.70;99.90
16655;DHT22;8441;51.344;7.022;2023-05-20T10:17:49;17.80;99.90
16655;DHT22;8441;51.344;7.022;2023-05-20T10:20:20;18.00;99.90
16655;DHT22;8441;51.344;7.022;2023-05-20T10:22:54;18.00;99.90
16655;DHT22;8441;51.344;7.022;2023-05-20T10:25:24;17.70;99.90
16655;DHT22;8441;51.344;7.022;2023-05-20T10:28:03;17.70;99.90
16655;DHT22;8441;51.344;7.022;2023-05-20T10:30:33;17.60;99.90
16655;DHT22;8441;51.344;7.022;2023-05-20T10:33:04;17.80;99.90
16655;DHT22;8441;51.344;7.022;2023-05-20T10:35:32;18.10;99.90
16655;DHT22;8441;51.344;7.022;2023-05-20T10:38:09;18.20;99.90
16655;DHT22;8441;51.344;7.022;2023-05-20T10:40:37;18.40;99.90
16655;DHT22;8441;51.344;7.022;2023-05-20T10:43:08;17.80;99.90
16655;DHT22;8441;51.344;7.022;2023-05-20T10:45:48;17.60;99.90
16655;DHT22;8441;51.344;7.022;2023-05-20T10:48:26;17.30;99.90
16655;DHT22;8441;51.344;7.022;2023-05-20T10:50:54;17.60;99.90
16655;DHT22;8441;51.344;7.022;2023-05-20T10:53:23;17.70;99.90
16655;DHT22;8441;51.344;7.022;2023-05-20T10:55:52;17.80;99.90
16655;DHT22;8441;51.344;7.022;2023-05-20T10:58:21;18.00;99.90
16655;DHT22;8441;51.344;7.022;2023-05-20T11:00:54;18.00;99.90
16655;DHT22;8441;51.344;7.022;2023-05-20T11:03:21;18.00;99.90
16655;DHT22;8441;51.344;7.022;2023-05-20T11:05:49;17.90;99.90
16655;DHT22;8441;51.344;7.022;2023-05-20T11:08:16;18.10;99.90
16655;DHT22;8441;51.344;7.022;2023-05-20T11:10:44;18.40;99.90
16655;DHT22;8441;51.344;7.022;2023-05-20T11:13:12;18.60;99.90
16655;DHT22;8441;51.344;7.022;2023-05-20T11:15:40;18.70;99.90
16655;DHT22;8441;51.344;7.022;2023-05-20T11:18:10;18.70;99.90
16655;DHT22;8441;51.344;7.022;2023-05-20T11:20:40;19.00;99.90
16655;DHT22;8441;51.344;7.022;2023-05-20T11:23:12;18.60;99.90
16655;DHT22;8441;51.344;7.022;2023-05-20T11:25:39;18.90;99.90
16655;DHT22;8441;51.344;7.022;2023-05-20T11:28:08;19.00;99.90
16655;DHT22;8441;51.344;7.022;2023-05-20T11:30:38;19.00;99.90
16655;DHT22;8441;51.344;7.022;2023-05-20T11:33:05;19.10;99.90
16655;DHT22;8441;51.344;7.022;2023-05-20T11:35:34;19.10;99.90
16655;DHT22;8441;51.344;7.022;2023-05-20T11:38:02;19.50;99.90
16655;DHT22;8441;51.344;7.022;2023-05-20T11:40:32;19.60;99.90
16655;DHT22;8441;51.344;7.022;2023-05-20T11:43:01;19.60;99.90
16655;DHT22;8441;51.344;7.022;2023-05-20T11:45:38;19.10;99.90
16655;DHT22;8441;51.344;7.022;2023-05-20T11:48:06;19.50;99.90
16655;DHT22;8441;51.344;7.022;2023-05-20T11:50:36;19.70;99.90
16655;DHT22;8441;51.344;7.022;2023-05-20T11:53:06;19.60;99.90
16655;DHT22;8441;51.344;7.022;2023-05-20T11:55:43;19.50;99.90
16655;DHT22;8441;51.344;7.022;2023-05-20T11:58:10;19.70;99.90
16655;DHT22;8441;51.344;7.022;2023-05-20T12:00:37;19.50;99.90
16655;DHT22;8441;51.344;7.022;2023-05-20T12:03:04;19.30;99.90
16655;DHT22;8441;51.344;7.022;2023-05-20T12:05:32;19.40;99.90
16655;DHT22;8441;51.344;7.022;2023-05-20T12:08:00;19.70;99.90
16655;DHT22;8441;51.344;7.022;2023-05-20T12:10:28;20.30;99.90
16655;DHT22;8441;51.344;7.022;2023-05-20T12:12:56;20.60;99.90
16655;DHT22;8441;51.344;7.022;2023-05-20T12:15:23;20.80;99.90
16655;DHT22;8441;51.344;7.022;2023-05-20T12:17:52;21.10;99.90
16655;DHT22;8441;51.344;7.022;2023-05-20T12:20:22;21.10;99.90
16655;DHT22;8441;51.344;7.022;2023-05-20T12:22:49;21.10;99.90
16655;DHT22;8441;51.344;7.022;2023-05-20T12:25:19;21.00;99.90
16655;DHT22;8441;51.344;7.022;2023-05-20T12:27:47;20.90;99.90
16655;DHT22;8441;51.344;7.022;2023-05-20T12:30:16;20.70;99.90
16655;DHT22;8441;51.344;7.022;2023-05-20T12:32:45;20.80;99.90
16655;DHT22;8441;51.344;7.022;2023-05-20T12:35:12;20.90;99.90
16655;DHT22;8441;51.344;7.022;2023-05-20T12:37:40;20.80;99.90
16655;DHT22;8441;51.344;7.022;2023-05-20T12:40:08;21.00;99.90
16655;DHT22;8441;51.344;7.022;2023-05-20T12:42:38;20.90;99.90
16655;DHT22;8441;51.344;7.022;2023-05-20T12:45:07;20.70;99.90
16655;DHT22;8441;51.344;7.022;2023-05-20T12:47:34;20.80;99.90
16655;DHT22;8441;51.344;7.022;2023-05-20T12:50:02;20.50;99.90
16655;DHT22;8441;51.344;7.022;2023-05-20T12:52:30;20.40;99.90
16655;DHT22;8441;51.344;7.022;2023-05-20T12:54:57;20.30;99.90
16655;DHT22;8441;51.344;7.022;2023-05-20T12:57:25;20.10;99.90
16655;DHT22;8441;51.344;7.022;2023-05-20T12:59:54;20.10;99.90
16655;DHT22;8441;51.344;7.022;2023-05-20T13:02:21;20.10;99.90
16655;DHT22;8441;51.344;7.022;2023-05-20T13:04:48;20.00;99.90
16655;DHT22;8441;51.344;7.022;2023-05-20T13:07:15;20.10;99.90
16655;DHT22;8441;51.344;7.022;2023-05-20T13:09:44;19.80;99.90
16655;DHT22;8441;51.344;7.022;2023-05-20T13:12:12;19.40;99.90
16655;DHT22;8441;51.344;7.022;2023-05-20T13:14:39;19.20;99.90
16655;DHT22;8441;51.344;7.022;2023-05-20T13:17:08;19.20;99.90
16655;DHT22;8441;51.344;7.022;2023-05-20T13:19:36;19.20;99.90
16655;DHT22;8441;51.344;7.022;2023-05-20T13:22:04;19.20;99.90
16655;DHT22;8441;51.344;7.022;2023-05-20T13:24:32;19.00;99.90
16655;DHT22;8441;51.344;7.022;2023-05-20T13:26:59;19.00;99.90
16655;DHT22;8441;51.344;7.022;2023-05-20T13:29:26;19.00;99.90
16655;DHT22;8441;51.344;7.022;2023-05-20T13:31:54;19.00;99.90
16655;DHT22;8441;51.344;7.022;2023-05-20T13:34:23;19.10;99.90
16655;DHT22;8441;51.344;7.022;2023-05-20T13:36:50;19.40;99.90
16655;DHT22;8441;51.344;7.022;2023-05-20T13:39:17;19.50;99.90
16655;DHT22;8441;51.344;7.022;2023-05-20T13:41:45;19.70;99.90
16655;DHT22;8441;51.344;7.022;2023-05-20T13:44:12;19.90;99.90
16655;DHT22;8441;51.344;7.022;2023-05-20T13:46:39;20.00;99.90
16655;DHT22;8441;51.344;7.022;2023-05-20T13:49:06;20.20;99.90
16655;DHT22;8441;51.344;7.022;2023-05-20T13:51:35;20.30;99.90
16655;DHT22;8441;51.344;7.022;2023-05-20T13:54:02;20.20;99.90
16655;DHT22;8441;51.344;7.022;2023-05-20T13:56:31;20.20;99.90
16655;DHT22;8441;51.344;7.022;2023-05-20T13:58:58;20.30;99.90
16655;DHT22;8441;51.344;7.022;2023-05-20T14:01:26;20.30;99.90
16655;DHT22;8441;51.344;7.022;2023-05-20T14:03:53;20.50;99.90
16655;DHT22;8441;51.344;7.022;2023-05-20T14:06:20;20.50;99.90
16655;DHT22;8441;51.344;7.022;2023-05-20T14:08:49;20.60;99.90
16655;DHT22;8441;51.344;7.022;2023-05-20T14:11:16;20.60;99.90
16655;DHT22;8441;51.344;7.022;2023-05-20T14:13:43;20.50;99.90
16655;DHT22;8441;51.344;7.022;2023-05-20T14:16:10;20.50;99.90
16655;DHT22;8441;51.344;7.022;2023-05-20T14:18:38;20.70;99.90
16655;DHT22;8441;51.344;7.022;2023-05-20T14:21:06;20.80;99.90
16655;DHT22;8441;51.344;7.022;2023-05-20T14:23:33;20.50;99.90
16655;DHT22;8441;51.344;7.022;2023-05-20T14:26:01;20.50;99.90
16655;DHT22;8441;51.344;7.022;2023-05-20T14:28:28;20.30;99.90
16655;DHT22;8441;51.344;7.022;2023-05-20T14:30:56;20.50;99.90
16655;DHT22;8441;51.344;7.022;2023-05-20T14:33:23;20.60;99.90
16655;DHT22;8441;51.344;7.022;2023-05-20T14:35:50;20.90;99.90
16655;DHT22;8441;51.344;7.022;2023-05-20T14:38:19;20.90;99.90
16655;DHT22;8441;51.344;7.022;2023-05-20T14:40:46;20.90;99.90
16655;DHT22;8441;51.344;7.022;2023-05-20T14:43:15;21.00;99.90
16655;DHT22;8441;51.344;7.022;2023-05-20T14:45:43;21.30;99.90
16655;DHT22;8441;51.344;7.022;2023-05-20T14:48:11;21.30;99.90
16655;DHT22;8441;51.344;7.022;2023-05-20T14:50:38;21.60;99.90
16655;DHT22;8441;51.344;7.022;2023-05-20T14:53:05;21.60;99.90
16655;DHT22;8441;51.344;7.022;2023-05-20T14:55:33;21.50;99.90
16655;DHT22;8441;51.344;7.022;2023-05-20T14:58:00;21.30;99.90
16655;DHT22;8441;51.344;7.022;2023-05-20T15:00:29;21.30;99.90
16655;DHT22;8441;51.344;7.022;2023-05-20T15:02:57;21.00;99.90
16655;DHT22;8441;51.344;7.022;2023-05-20T15:05:24;21.00;99.90
16655;DHT22;8441;51.344;7.022;2023-05-20T15:07:51;20.90;99.90
16655;DHT22;8441;51.344;7.022;2023-05-20T15:10:19;20.90;99.90
16655;DHT22;8441;51.344;7.022;2023-05-20T15:12:46;20.80;99.90
16655;DHT22;8441;51.344;7.022;2023-05-20T15:15:13;21.00;99.90
16655;DHT22;8441;51.344;7.022;2023-05-20T15:17:42;21.10;99.90
16655;DHT22;8441;51.344;7.022;2023-05-20T15:20:10;21.00;99.90
16655;DHT22;8441;51.344;7.022;2023-05-20T15:22:37;20.50;99.90
16655;DHT22;8441;51.344;7.022;2023-05-20T15:25:06;20.30;99.90
16655;DHT22;8441;51.344;7.022;2023-05-20T15:27:33;20.10;99.90
16655;DHT22;8441;51.344;7.022;2023-05-20T15:30:00;19.80;99.90
16655;DHT22;8441;51.344;7.022;2023-05-20T15:32:28;19.60;99.90
16655;DHT22;8441;51.344;7.022;2023-05-20T15:34:56;19.60;99.90
16655;DHT22;8441;51.344;7.022;2023-05-20T15:37:23;19.80;99.90
16655;DHT22;8441;51.344;7.022;2023-05-20T15:39:51;19.70;99.90
16655;DHT22;8441;51.344;7.022;2023-05-20T15:42:18;19.70;99.90
16655;DHT22;8441;51.344;7.022;2023-05-20T15:44:46;19.80;99.90
16655;DHT22;8441;51.344;7.022;2023-05-20T15:47:13;19.70;99.90
16655;DHT22;8441;51.344;7.022;2023-05-20T15:49:40;19.70;99.90
16655;DHT22;8441;51.344;7.022;2023-05-20T15:52:09;19.80;99.90
16655;DHT22;8441;51.344;7.022;2023-05-20T15:54:36;20.00;99.90